Time;durP1;ratioP1;P1;durP2;ratioP2;P2;SDS_P1;SDS_P2;PMS_P1;PMS_P2;Temp;Humidity;BMP_temperature;BMP_pressure;BME280_temperature;BME280_humidity;BME280_pressure;Samples;Min_cycle;Max_cycle;Signal;HPM_P1;HPM_P2
2022/04/14 00:01:01;;;;;;;6.13;3.47;;;;;;;15.87;58.63;100397.69;5110227;28;20887;-79
2022/04/14 00:03:26;;;;;;;9.70;3.60;;;;;;;15.82;58.74;100401.25;5110542;28;20381;-79
2022/04/14 00:05:52;;;;;;;5.83;3.57;;;;;;;15.78;58.52;100402.06;5111656;28;20526;-79
2022/04/14 00:08:17;;;;;;;8.83;3.70;;;;;;;15.72;58.95;100395.00;5111598;28;20439;-79
2022/04/14 00:10:42;;;;;;;12.43;3.80;;;;;;;15.70;58.79;100400.75;5097505;28;20771;-79
2022/04/14 00:13:08;;;;;;;6.70;3.27;;;;;;;15.69;59.13;100399.13;5108465;28;20380;-79
2022/04/14 00:15:33;;;;;;;8.77;3.90;;;;;;;15.70;59.39;100402.69;5111259;28;20397;-79
2022/04/14 00:17:58;;;;;;;10.50;3.10;;;;;;;15.66;59.48;100401.59;5111756;28;20392;-79
2022/04/14 00:20:24;;;;;;;8.67;3.57;;;;;;;15.66;59.49;100402.41;5113925;28;20396;-79
2022/04/14 00:22:49;;;;;;;4.73;3.17;;;;;;;15.68;59.71;100402.94;5112514;28;20417;-79
2022/04/14 00:25:15;;;;;;;4.45;3.03;;;;;;;15.68;59.66;100396.66;5113888;28;20882;-79
2022/04/14 00:27:40;;;;;;;6.63;3.15;;;;;;;15.67;59.36;100398.59;5115501;28;20805;-79
2022/04/14 00:30:08;;;;;;;12.87;3.70;;;;;;;15.68;59.31;100396.66;5115273;28;20854;-79
2022/04/14 00:32:34;;;;;;;7.75;3.28;;;;;;;15.68;59.18;100394.75;5115328;28;20425;-79
2022/04/14 00:35:00;;;;;;;13.02;3.50;;;;;;;15.66;59.47;100394.22;5114792;28;20402;-79
2022/04/14 00:37:25;;;;;;;9.33;3.40;;;;;;;15.60;59.69;100395.34;5112823;28;20400;-79
2022/04/14 00:39:51;;;;;;;10.18;3.53;;;;;;;15.56;59.97;100400.53;5105004;28;20481;-79
2022/04/14 00:42:16;;;;;;;8.07;3.63;;;;;;;15.55;60.05;100403.53;5115233;28;20859;-79
2022/04/14 00:44:42;;;;;;;6.97;3.40;;;;;;;15.54;59.75;100407.38;5113827;28;20522;-79
2022/04/14 00:47:08;;;;;;;6.10;3.22;;;;;;;15.52;60.06;100402.19;5114044;28;20432;-79
2022/04/14 00:49:35;;;;;;;8.38;3.75;;;;;;;15.49;60.32;100408.22;5115188;28;20373;-79
2022/04/14 00:52:00;;;;;;;6.87;3.27;;;;;;;15.47;60.26;100413.13;5111557;28;20394;-79
2022/04/14 00:54:26;;;;;;;7.03;3.30;;;;;;;15.47;60.49;100412.28;5112219;28;20415;-79
2022/04/14 00:56:51;;;;;;;9.27;3.38;;;;;;;15.49;60.31;100423.78;5114770;28;20400;-79
2022/04/14 00:59:17;;;;;;;5.63;3.40;;;;;;;15.47;60.15;100418.56;5100157;28;20389;-79
2022/04/14 01:01:42;;;;;;;7.53;3.03;;;;;;;15.48;60.01;100419.41;5105695;28;20380;-79
2022/04/14 01:04:10;;;;;;;8.97;3.37;;;;;;;15.46;60.26;100419.66;5113190;28;20784;-79
2022/04/14 01:06:38;;;;;;;8.68;3.63;;;;;;;15.47;59.67;100429.50;5111204;28;20388;-79
2022/04/14 01:09:16;;;;;;;10.00;3.60;;;;;;;15.47;60.26;100429.50;5114377;28;20388;-79
2022/04/14 01:11:44;;;;;;;6.15;3.17;;;;;;;15.42;60.51;100431.41;5114622;28;20475;-79
2022/04/14 01:14:24;;;;;;;8.80;3.33;;;;;;;15.36;60.58;100432.53;5113032;28;20388;-79
2022/04/14 01:16:49;;;;;;;9.43;3.22;;;;;;;15.32;60.55;100426.78;5114171;28;20750;-80
2022/04/14 01:19:15;;;;;;;6.47;3.23;;;;;;;15.27;60.94;100432.28;5114530;28;20455;-79
2022/04/14 01:21:49;;;;;;;8.07;3.30;;;;;;;15.22;60.42;100435.00;5112975;28;20400;-79
2022/04/14 01:24:14;;;;;;;5.30;3.03;;;;;;;15.12;61.29;100443.22;5110963;28;20407;-79
2022/04/14 01:26:40;;;;;;;8.87;3.60;;;;;;;15.05;61.73;100445.41;5092712;28;20892;-79
2022/04/14 01:29:06;;;;;;;6.47;3.30;;;;;;;15.02;61.63;100437.75;5103562;28;20787;-79
2022/04/14 01:31:31;;;;;;;6.25;3.25;;;;;;;14.97;61.90;100440.50;5112329;28;20886;-79
2022/04/14 01:33:56;;;;;;;6.72;3.28;;;;;;;14.99;61.52;100443.78;5112735;28;20409;-79
2022/04/14 01:36:22;;;;;;;8.70;3.13;;;;;;;15.00;62.07;100448.97;5103600;28;20420;-79
2022/04/14 01:38:47;;;;;;;6.93;3.40;;;;;;;15.00;61.99;100451.69;5113861;28;20406;-79
2022/04/14 01:41:13;;;;;;;8.17;3.60;;;;;;;15.00;62.20;100459.88;5113351;28;20397;-79
2022/04/14 01:43:38;;;;;;;10.47;3.53;;;;;;;15.00;62.17;100459.06;5112807;28;20385;-79
2022/04/14 01:46:08;;;;;;;10.00;4.20;;;;;;;15.01;62.74;100466.16;5113261;28;20400;-79
2022/04/14 01:48:34;;;;;;;6.47;3.55;;;;;;;15.00;62.25;100465.34;5113815;28;20408;-79
2022/04/14 01:50:59;;;;;;;11.00;3.60;;;;;;;15.03;62.53;100470.25;5111330;28;20397;-79
2022/04/14 01:53:24;;;;;;;7.00;3.70;;;;;;;15.06;62.70;100483.34;5113893;28;20437;-79
2022/04/14 01:55:50;;;;;;;6.30;3.10;;;;;;;15.06;63.01;100475.16;5113410;28;20403;-79
2022/04/14 01:58:15;;;;;;;5.50;3.27;;;;;;;15.07;62.56;100470.53;5112554;28;20393;-79
2022/04/14 02:00:40;;;;;;;8.73;3.47;;;;;;;15.08;62.68;100480.34;5113665;28;20930;-79
2022/04/14 02:03:05;;;;;;;8.30;3.90;;;;;;;15.12;62.98;100484.16;5112392;28;20392;-79
2022/04/14 02:05:31;;;;;;;4.90;3.03;;;;;;;15.12;62.48;100481.41;5112091;28;20404;-79
2022/04/14 02:07:56;;;;;;;7.80;3.22;;;;;;;15.15;62.66;100491.00;5113502;28;20751;-79
2022/04/14 02:10:21;;;;;;;5.77;3.03;;;;;;;15.16;62.72;100487.16;5113620;28;20385;-79
2022/04/14 02:12:46;;;;;;;8.27;3.70;;;;;;;15.18;63.04;100485.78;5107170;28;20390;-79
2022/04/14 02:15:12;;;;;;;7.23;3.60;;;;;;;15.18;62.74;100483.06;5112587;28;20404;-79
2022/04/14 02:17:38;;;;;;;7.53;4.17;;;;;;;15.18;62.92;100485.78;5112054;28;20565;-79
2022/04/14 02:20:03;;;;;;;10.27;4.90;;;;;;;15.19;62.88;100489.34;5108511;28;20469;-79
2022/04/14 02:22:29;;;;;;;10.35;4.68;;;;;;;15.19;63.35;100487.44;5111916;28;20471;-79
2022/04/14 02:24:54;;;;;;;9.53;4.63;;;;;;;15.20;63.48;100491.81;5111651;28;20393;-79
2022/04/14 02:27:21;;;;;;;9.73;5.70;;;;;;;15.23;63.14;100488.53;5113215;28;20404;-79
2022/04/14 02:29:46;;;;;;;12.55;5.20;;;;;;;15.24;63.00;100483.88;5113043;28;20392;-79
2022/04/14 02:32:11;;;;;;;9.73;5.30;;;;;;;15.25;63.00;100488.22;5111775;28;20389;-79
2022/04/14 02:34:36;;;;;;;8.67;4.70;;;;;;;15.27;62.99;100489.63;5099656;28;20413;-79
2022/04/14 02:37:02;;;;;;;9.33;4.87;;;;;;;15.28;63.40;100488.50;5112306;28;20808;-79
2022/04/14 02:39:27;;;;;;;11.07;4.10;;;;;;;15.29;63.45;100492.06;5112891;28;20393;-79
2022/04/14 02:41:52;;;;;;;8.43;4.57;;;;;;;15.29;63.11;100490.16;5112315;28;20821;-79
2022/04/14 02:44:17;;;;;;;9.67;4.53;;;;;;;15.27;62.90;100491.53;5112411;28;20407;-79
2022/04/14 02:46:43;;;;;;;13.10;4.53;;;;;;;15.21;62.92;100490.72;5112450;28;20403;-79
2022/04/14 02:49:08;;;;;;;9.53;3.87;;;;;;;15.11;63.22;100495.34;5108019;28;20416;-79
2022/04/14 02:51:34;;;;;;;10.10;4.13;;;;;;;15.05;63.44;100498.06;5108486;28;20411;-79
2022/04/14 02:53:59;;;;;;;7.80;4.20;;;;;;;15.06;63.34;100499.72;5111840;28;20405;-79
2022/04/14 02:56:24;;;;;;;5.57;3.47;;;;;;;15.05;63.59;100500.81;5104546;28;20474;-79
2022/04/14 02:58:49;;;;;;;9.43;3.87;;;;;;;15.00;63.45;100500.81;5108683;28;20404;-79
2022/04/14 03:01:15;;;;;;;8.50;3.70;;;;;;;14.96;63.75;100499.72;5111323;28;20929;-79
2022/04/14 03:03:40;;;;;;;11.25;4.25;;;;;;;14.92;63.89;100504.06;5112311;28;20388;-79
2022/04/14 03:06:05;;;;;;;8.90;4.37;;;;;;;14.88;63.99;100513.09;5110191;28;20432;-79
2022/04/14 03:08:31;;;;;;;6.03;3.77;;;;;;;14.87;64.25;100508.72;5112172;28;20436;-79
2022/04/14 03:10:56;;;;;;;9.50;3.83;;;;;;;14.81;64.27;100507.09;5112211;28;20395;-79
2022/04/14 03:13:22;;;;;;;9.33;3.63;;;;;;;14.78;64.19;100508.44;5110170;28;20408;-79
2022/04/14 03:15:49;;;;;;;11.57;4.35;;;;;;;14.78;64.04;100510.34;5100909;28;20896;-79
2022/04/14 03:18:15;;;;;;;9.48;4.10;;;;;;;14.70;64.39;100511.69;5111084;28;20396;-79
2022/04/14 03:20:40;;;;;;;8.18;4.15;;;;;;;14.67;64.91;100506.78;5110922;28;20445;-79
2022/04/14 03:23:06;;;;;;;8.17;4.40;;;;;;;14.65;64.61;100508.16;5111186;28;20404;-79
2022/04/14 03:25:31;;;;;;;9.35;4.28;;;;;;;14.64;64.63;100506.50;5109748;28;20399;-79
2022/04/14 03:27:57;;;;;;;8.93;4.13;;;;;;;14.65;64.64;100510.88;5108435;28;20767;-79
2022/04/14 03:30:22;;;;;;;11.80;4.47;;;;;;;14.63;64.62;100510.31;5110661;28;20439;-79
2022/04/14 03:32:48;;;;;;;7.30;3.87;;;;;;;14.61;64.72;100504.31;5111258;28;20380;-79
2022/04/14 03:35:14;;;;;;;12.47;4.27;;;;;;;14.61;64.70;100512.50;5110435;28;20396;-79
2022/04/14 03:37:40;;;;;;;7.70;4.10;;;;;;;14.59;65.12;100511.97;5103396;28;20425;-79
2022/04/14 03:40:07;;;;;;;7.53;3.90;;;;;;;14.57;64.64;100511.41;5106944;27;20436;-79
2022/04/14 03:42:33;;;;;;;8.23;4.17;;;;;;;14.55;64.71;100522.59;5104229;28;20398;-79
2022/04/14 03:44:59;;;;;;;6.72;3.80;;;;;;;14.54;64.91;100516.31;5102776;28;20467;-79
2022/04/14 03:47:25;;;;;;;5.87;3.77;;;;;;;14.53;64.67;100524.75;5106528;28;20406;-79
2022/04/14 03:49:50;;;;;;;7.28;3.83;;;;;;;14.50;64.91;100528.03;5110098;28;20393;-79
2022/04/14 03:52:16;;;;;;;7.03;3.77;;;;;;;14.44;65.21;100521.75;5111775;28;20391;-79
2022/04/14 03:54:41;;;;;;;8.97;4.67;;;;;;;14.43;65.04;100528.28;5115181;28;20751;-80
2022/04/14 03:57:06;;;;;;;5.80;4.57;;;;;;;14.41;65.03;100538.66;5115649;28;20890;-79
2022/04/14 03:59:31;;;;;;;7.60;4.37;;;;;;;14.39;65.10;100538.06;5115035;28;20455;-79
2022/04/14 04:01:57;;;;;;;8.83;4.00;;;;;;;14.38;64.89;100525.56;5108247;28;20471;-79
2022/04/14 04:04:25;;;;;;;5.90;4.17;;;;;;;14.35;65.30;100531.53;5114676;28;20392;-79
2022/04/14 04:06:50;;;;;;;10.93;5.10;;;;;;;14.33;65.27;100538.28;5115783;28;20391;-79
2022/04/14 04:09:15;;;;;;;10.40;5.53;;;;;;;14.32;65.34;100539.41;5097118;28;20441;-79
2022/04/14 04:11:41;;;;;;;12.52;5.82;;;;;;;14.31;65.50;100540.47;5099655;28;20428;-79
2022/04/14 04:14:06;;;;;;;9.47;4.87;;;;;;;14.25;65.48;100536.94;5115749;28;20533;-79
2022/04/14 04:16:33;;;;;;;12.50;5.30;;;;;;;14.29;65.84;100546.19;5107103;28;20875;-79
2022/04/14 04:18:58;;;;;;;10.90;5.93;;;;;;;14.31;65.55;100540.47;5101753;28;20474;-79
2022/04/14 04:21:25;;;;;;;12.40;7.93;;;;;;;14.31;65.64;100545.94;5115344;28;20391;-79
2022/04/14 04:23:50;;;;;;;10.17;6.10;;;;;;;14.29;65.39;100539.94;5114182;28;20826;-79
2022/04/14 04:26:15;;;;;;;12.57;6.30;;;;;;;14.20;65.83;100553.25;5113591;28;20427;-80
2022/04/14 04:28:41;;;;;;;10.10;5.07;;;;;;;14.16;65.51;100549.41;5106245;28;20413;-79
2022/04/14 04:31:06;;;;;;;8.32;5.32;;;;;;;14.16;65.41;100549.41;5111978;28;20380;-79
2022/04/14 04:33:31;;;;;;;8.33;5.30;;;;;;;14.13;65.40;100551.88;5112996;27;20777;-79
2022/04/14 04:35:56;;;;;;;8.53;4.30;;;;;;;14.14;65.18;100550.75;5103077;28;20396;-79
2022/04/14 04:38:22;;;;;;;12.03;5.07;;;;;;;14.11;65.38;100551.28;5103645;28;20401;-79
2022/04/14 04:40:47;;;;;;;10.13;5.33;;;;;;;14.08;65.35;100560.81;5113636;28;20399;-79
2022/04/14 04:43:14;;;;;;;12.63;5.47;;;;;;;14.06;65.19;100552.13;5109532;28;20399;-79
2022/04/14 04:45:40;;;;;;;11.52;5.32;;;;;;;13.99;65.36;100563.22;5096558;28;20396;-80
2022/04/14 04:48:05;;;;;;;13.52;7.00;;;;;;;13.95;65.51;100564.84;5105717;28;20414;-79
2022/04/14 04:50:31;;;;;;;9.63;7.00;;;;;;;13.93;65.52;100564.28;5111472;28;20399;-79
2022/04/14 04:52:56;;;;;;;15.37;8.40;;;;;;;13.93;65.70;100568.91;5112878;28;20404;-79
2022/04/14 04:55:21;;;;;;;8.57;4.10;;;;;;;13.90;65.09;100574.88;5105197;28;20430;-80
2022/04/14 04:57:47;;;;;;;12.43;3.97;;;;;;;13.90;65.19;100574.88;5111955;28;20406;-79
2022/04/14 05:00:12;;;;;;;8.40;3.97;;;;;;;13.88;64.93;100575.16;5109758;28;20395;-79
2022/04/14 05:02:38;;;;;;;8.73;4.30;;;;;;;13.48;65.69;100570.28;5109473;28;20388;-80
2022/04/14 05:05:04;;;;;;;6.88;3.75;;;;;;;13.50;66.16;100578.19;5114232;28;20395;-80
2022/04/14 05:07:30;;;;;;;11.63;4.07;;;;;;;13.59;66.12;100575.78;5114712;28;20469;-79
2022/04/14 05:09:55;;;;;;;7.82;3.60;;;;;;;13.66;65.79;100576.38;5111358;28;20807;-80
2022/04/14 05:12:20;;;;;;;7.70;3.80;;;;;;;13.69;65.65;100581.31;5112969;28;20407;-80
2022/04/14 05:14:45;;;;;;;9.40;4.30;;;;;;;13.73;65.60;100582.44;5112933;28;20759;-79
2022/04/14 05:17:11;;;;;;;7.87;4.07;;;;;;;13.70;65.85;100589.19;5105445;28;20735;-80
2022/04/14 05:19:36;;;;;;;6.73;3.83;;;;;;;13.73;65.97;100594.13;5101734;28;20415;-79
2022/04/14 05:22:01;;;;;;;9.23;3.90;;;;;;;13.77;65.84;100592.53;5109836;27;20406;-80
2022/04/14 05:24:29;;;;;;;13.23;3.57;;;;;;;13.82;65.78;100594.47;5113822;28;20397;-80
2022/04/14 05:26:54;;;;;;;8.48;4.28;;;;;;;13.88;65.96;100594.25;5114222;28;20408;-80
2022/04/14 05:29:22;;;;;;;7.43;3.60;;;;;;;13.93;65.44;100596.97;5102088;28;20415;-80
2022/04/14 05:31:47;;;;;;;9.45;4.05;;;;;;;13.94;66.26;100600.53;5113942;28;20408;-79
2022/04/14 05:34:13;;;;;;;8.93;4.10;;;;;;;13.97;66.22;100600.00;5112938;28;20381;-79
2022/04/14 05:36:38;;;;;;;11.17;4.00;;;;;;;13.96;65.95;100606.56;5110499;28;20397;-79
2022/04/14 05:39:31;;;;;;;10.67;4.50;;;;;;;14.00;65.79;100610.38;5112849;28;20451;-80
2022/04/14 05:41:56;;;;;;;8.05;4.05;;;;;;;14.06;65.80;100612.06;5104303;28;20393;-80
2022/04/14 05:44:22;;;;;;;6.65;3.80;;;;;;;14.14;65.81;100618.91;5112511;28;20805;-80
2022/04/14 05:46:47;;;;;;;9.57;3.80;;;;;;;14.14;65.82;100613.44;5112246;28;20541;-79
2022/04/14 05:49:12;;;;;;;11.97;4.57;;;;;;;14.19;65.67;100610.75;5112517;28;20429;-80
2022/04/14 05:51:37;;;;;;;9.35;4.07;;;;;;;14.15;65.62;100618.66;5111322;28;20426;-80
2022/04/14 05:54:03;;;;;;;9.43;4.23;;;;;;;14.10;66.23;100615.88;5113881;28;20389;-80
2022/04/14 05:56:28;;;;;;;12.13;4.33;;;;;;;14.14;66.42;100621.63;5113106;28;20392;-79
2022/04/14 05:58:54;;;;;;;8.55;4.10;;;;;;;14.15;66.45;100617.81;5112561;28;20440;-79
2022/04/14 06:01:19;;;;;;;10.23;4.40;;;;;;;14.06;66.49;100622.97;5111854;28;20389;-79
2022/04/14 06:03:44;;;;;;;8.55;4.55;;;;;;;14.17;66.53;100627.38;5113823;28;20384;-79
2022/04/14 06:06:12;;;;;;;10.47;4.70;;;;;;;14.30;66.50;100624.16;5111969;28;20405;-79
2022/04/14 06:08:37;;;;;;;8.83;4.37;;;;;;;14.36;66.50;100628.59;5113715;28;20412;-78
2022/04/14 06:11:04;;;;;;;10.80;4.07;;;;;;;14.45;66.29;100631.63;5109581;27;20414;-78
2022/04/14 06:13:30;;;;;;;8.90;4.47;;;;;;;14.52;66.57;100632.22;5100643;28;20460;-79
2022/04/14 06:15:55;;;;;;;11.23;4.73;;;;;;;14.59;67.00;100637.44;5111153;28;20602;-79
2022/04/14 06:18:21;;;;;;;10.17;4.23;;;;;;;14.70;66.69;100634.47;5110776;28;20893;-79
2022/04/14 06:20:47;;;;;;;11.38;5.22;;;;;;;14.75;66.45;100634.47;5098235;28;20648;-79
2022/04/14 06:23:16;;;;;;;10.90;5.00;;;;;;;14.71;66.55;100636.09;5102052;28;20882;-79
2022/04/14 06:25:41;;;;;;;13.18;4.60;;;;;;;14.82;66.63;100636.97;5100936;28;20406;-79
2022/04/14 06:28:07;;;;;;;16.48;5.70;;;;;;;14.90;66.56;100636.41;5109875;28;20461;-79
2022/04/14 06:30:32;;;;;;;16.55;5.55;;;;;;;14.96;66.61;100627.16;5111511;28;20449;-79
2022/04/14 06:33:02;;;;;;;15.77;5.80;;;;;;;14.95;67.17;100644.63;5105470;28;20392;-79
2022/04/14 06:35:28;;;;;;;11.77;4.97;;;;;;;14.91;68.25;100636.16;5101495;28;20892;-80
2022/04/14 06:37:53;;;;;;;13.98;5.45;;;;;;;14.98;68.04;100649.56;5099038;28;20420;-79
2022/04/14 06:40:21;;;;;;;12.10;4.87;;;;;;;15.03;67.89;100641.38;5107775;28;20407;-79
2022/04/14 06:42:46;;;;;;;10.85;5.30;;;;;;;15.08;68.34;100646.84;5111856;28;20394;-79
2022/04/14 06:45:12;;;;;;;9.50;4.87;;;;;;;15.14;67.69;100640.31;5101228;28;20906;-79
2022/04/14 06:47:37;;;;;;;10.73;5.53;;;;;;;15.26;67.80;100645.50;5104173;28;20415;-79
2022/04/14 06:50:03;;;;;;;13.07;5.53;;;;;;;15.38;67.21;100646.88;5110768;28;20404;-79
2022/04/14 06:52:28;;;;;;;9.68;5.53;;;;;;;15.50;67.21;100654.84;5109030;28;20763;-79
2022/04/14 06:54:53;;;;;;;16.13;5.90;;;;;;;15.59;66.94;100655.94;5108553;28;20888;-79
2022/04/14 06:57:20;;;;;;;15.87;5.87;;;;;;;15.68;67.05;100653.47;5108364;28;20392;-79
2022/04/14 06:59:46;;;;;;;12.85;5.63;;;;;;;15.74;67.16;100647.72;5112238;28;20461;-78
2022/04/14 07:02:12;;;;;;;10.32;5.18;;;;;;;15.81;67.26;100651.00;5112482;28;20457;-79
2022/04/14 07:04:37;;;;;;;14.77;6.10;;;;;;;15.80;68.10;100656.75;5108936;28;20429;-79
2022/04/14 07:07:03;;;;;;;11.60;5.18;;;;;;;15.87;67.71;100649.09;5103493;28;20408;-79
2022/04/14 07:09:34;;;;;;;10.77;5.90;;;;;;;15.96;67.78;100640.06;5111039;28;20493;-79
2022/04/14 07:12:00;;;;;;;11.15;6.30;;;;;;;16.12;67.60;100648.22;5104202;28;20758;-77
2022/04/14 07:14:28;;;;;;;15.65;5.93;;;;;;;16.29;67.15;100652.31;5107515;28;20392;-79
2022/04/14 07:16:54;;;;;;;13.07;6.57;;;;;;;16.44;66.71;100654.97;5103239;28;20791;-79
2022/04/14 07:19:19;;;;;;;12.47;6.90;;;;;;;16.62;66.13;100652.75;5106094;28;20468;-78
2022/04/14 07:21:44;;;;;;;14.10;8.30;;;;;;;16.73;65.16;100654.38;5105252;28;20772;-79
2022/04/14 07:24:10;;;;;;;18.25;10.95;;;;;;;16.75;64.92;100657.63;5107043;28;20428;-77
2022/04/14 07:26:36;;;;;;;19.60;11.63;;;;;;;16.73;64.24;100659.84;5108051;28;20772;-77
2022/04/14 07:29:02;;;;;;;17.05;13.60;;;;;;;16.72;64.31;100661.75;5106265;27;20448;-77
2022/04/14 07:31:27;;;;;;;18.15;13.13;;;;;;;16.75;64.33;100666.66;5104721;28;20886;-77
2022/04/14 07:33:52;;;;;;;23.20;15.27;;;;;;;16.78;63.98;100665.28;5104020;27;20810;-77
2022/04/14 07:36:21;;;;;;;24.27;14.27;;;;;;;16.84;63.99;100675.09;5107809;28;20415;-77
2022/04/14 07:38:48;;;;;;;16.13;13.75;;;;;;;16.91;63.83;100670.97;5110821;28;21482;-77
2022/04/14 07:41:13;;;;;;;18.77;14.93;;;;;;;16.99;63.79;100673.09;5104382;28;20491;-77
2022/04/14 07:43:38;;;;;;;19.53;13.17;;;;;;;17.12;63.38;100669.72;5110032;28;20758;-77
2022/04/14 07:46:04;;;;;;;19.83;13.33;;;;;;;17.31;63.25;100667.16;5111340;28;20388;-77
2022/04/14 07:48:30;;;;;;;17.07;13.77;;;;;;;17.51;62.50;100669.78;5116060;28;20445;-76
2022/04/14 07:50:55;;;;;;;15.82;12.63;;;;;;;17.64;62.12;100673.81;5119210;28;20440;-78
2022/04/14 07:53:20;;;;;;;18.60;15.40;;;;;;;17.72;61.78;100675.91;5105203;28;20423;-78
2022/04/14 07:55:46;;;;;;;18.37;14.77;;;;;;;17.83;61.14;100673.91;5110282;28;20492;-78
2022/04/14 07:58:11;;;;;;;19.20;15.67;;;;;;;17.81;60.89;100676.13;5099289;28;20390;-78
2022/04/14 08:00:39;;;;;;;17.03;13.60;;;;;;;17.87;61.60;100672.25;5095203;28;20405;-78
2022/04/14 08:03:05;;;;;;;19.27;15.35;;;;;;;17.89;61.57;100673.59;5101732;28;20760;-78
2022/04/14 08:05:36;;;;;;;18.63;14.48;;;;;;;17.90;61.35;100683.47;5110063;28;20479;-78
2022/04/14 08:08:07;;;;;;;20.90;14.35;;;;;;;17.84;61.37;100684.63;5111471;28;20822;-78
2022/04/14 08:10:32;;;;;;;18.83;15.52;;;;;;;17.83;61.55;100676.66;5109590;28;20739;-78
2022/04/14 08:12:58;;;;;;;20.17;16.23;;;;;;;17.80;61.26;100678.06;5102858;28;20406;-78
2022/04/14 08:15:24;;;;;;;21.10;15.90;;;;;;;17.86;61.35;100676.09;5099193;28;20806;-78
2022/04/14 08:17:50;;;;;;;20.03;16.40;;;;;;;17.91;61.30;100685.09;5106716;28;20911;-79
2022/04/14 08:20:16;;;;;;;21.40;15.70;;;;;;;17.99;61.15;100684.47;5098883;28;20439;-78
2022/04/14 08:23:03;;;;;;;20.70;17.00;;;;;;;18.02;60.71;100683.06;5105777;28;20439;-78
2022/04/14 08:25:30;;;;;;;21.58;17.52;;;;;;;18.07;60.68;100678.38;5108145;28;20875;-78
2022/04/14 08:27:58;;;;;;;22.85;17.33;;;;;;;18.21;60.65;100683.97;5105071;28;20404;-78
2022/04/14 08:30:25;;;;;;;25.60;16.47;;;;;;;18.37;60.67;100681.91;5107263;28;20414;-78
2022/04/14 08:32:51;;;;;;;24.05;16.33;;;;;;;18.42;60.32;100677.16;5103657;28;20388;-78
2022/04/14 08:35:18;;;;;;;21.63;16.60;;;;;;;18.50;59.85;100676.56;5102801;28;20393;-77
2022/04/14 08:37:45;;;;;;;17.90;15.48;;;;;;;18.63;59.52;100683.28;5103858;28;20408;-77
2022/04/14 08:40:12;;;;;;;19.90;16.30;;;;;;;18.77;59.33;100681.44;5110888;28;20407;-77
2022/04/14 08:43:06;;;;;;;20.48;16.58;;;;;;;18.92;59.24;100677.69;5115425;28;20487;-78
2022/04/14 08:45:37;;;;;;;19.55;16.70;;;;;;;18.93;58.73;100682.09;5112288;27;20392;-78
2022/04/14 08:48:04;;;;;;;21.48;17.25;;;;;;;18.84;58.23;100681.09;5110301;28;20463;-78
2022/04/14 08:50:31;;;;;;;20.40;16.50;;;;;;;18.70;58.57;100678.25;5112946;28;20396;-78
2022/04/14 08:52:57;;;;;;;22.83;17.08;;;;;;;18.72;59.26;100681.50;5113295;28;20499;-78
2022/04/14 08:55:24;;;;;;;20.60;15.67;;;;;;;18.86;59.11;100682.44;5115415;28;20475;-78
2022/04/14 08:57:49;;;;;;;20.95;16.38;;;;;;;18.98;58.75;100673.75;5114374;28;20389;-78
2022/04/14 09:00:16;;;;;;;18.92;16.95;;;;;;;19.12;58.84;100685.66;5112349;28;20384;-78
2022/04/14 09:02:45;;;;;;;20.45;17.45;;;;;;;19.21;58.18;100678.38;5108317;28;20886;-78
2022/04/14 09:05:16;;;;;;;19.93;16.67;;;;;;;19.30;57.61;100689.53;5115015;28;20781;-78
2022/04/14 09:07:45;;;;;;;18.77;13.30;;;;;;;19.50;57.29;100683.75;5107723;28;20410;-78
2022/04/14 09:10:10;;;;;;;17.05;12.77;;;;;;;19.92;56.54;100689.09;5112703;28;20384;-78
2022/04/14 09:12:37;;;;;;;20.43;15.67;;;;;;;20.23;55.21;100685.81;5109385;28;20419;-78
2022/04/14 09:15:03;;;;;;;18.38;14.77;;;;;;;20.39;54.80;100687.19;5110515;27;20453;-78
2022/04/14 09:17:29;;;;;;;22.45;15.05;;;;;;;20.60;53.74;100694.75;5110258;28;20405;-78
2022/04/14 09:19:54;;;;;;;19.90;14.77;;;;;;;20.87;53.07;100693.94;5100836;28;20402;-78
2022/04/14 09:22:23;;;;;;;18.27;14.30;;;;;;;20.89;52.92;100688.09;5095948;28;20801;-78
2022/04/14 09:24:49;;;;;;;17.02;15.02;;;;;;;20.78;53.24;100687.50;5097494;28;20462;-78
2022/04/14 09:27:31;;;;;;;22.33;17.95;;;;;;;20.49;53.73;100692.50;5103029;28;20488;-78
2022/04/14 09:30:08;;;;;;;19.83;17.35;;;;;;;20.35;54.46;100686.19;5111595;28;20396;-78
2022/04/14 09:32:39;;;;;;;22.65;18.27;;;;;;;20.25;54.19;100689.09;5114669;28;20939;-78
2022/04/14 09:35:05;;;;;;;18.75;16.85;;;;;;;20.25;54.11;100684.41;5112755;28;20407;-78
2022/04/14 09:37:31;;;;;;;19.40;16.43;;;;;;;20.80;53.42;100684.44;5114421;28;20411;-78
2022/04/14 09:40:01;;;;;;;19.75;16.15;;;;;;;21.37;51.96;100689.25;5106020;28;20380;-78
2022/04/14 09:42:37;;;;;;;20.67;17.00;;;;;;;21.75;50.86;100684.22;5110624;27;20416;-78
2022/04/14 09:45:29;;;;;;;19.00;17.02;;;;;;;21.95;50.06;100693.97;5107933;28;20407;-78
2022/04/14 09:48:10;;;;;;;21.17;17.73;;;;;;;22.04;49.99;100695.66;5095300;28;20420;-78
2022/04/14 09:50:40;;;;;;;19.05;17.15;;;;;;;22.16;49.52;100698.63;5094375;28;20483;-78
2022/04/14 09:53:14;;;;;;;20.02;17.23;;;;;;;21.78;49.87;100696.56;5109147;28;20448;-78
2022/04/14 09:55:40;;;;;;;19.85;16.48;;;;;;;21.94;50.42;100700.59;5110504;28;20400;-78
2022/04/14 09:58:11;;;;;;;20.50;16.65;;;;;;;22.69;49.29;100695.00;5113962;28;20497;-78
2022/04/14 10:00:48;;;;;;;20.13;17.23;;;;;;;23.21;47.35;100695.97;5111385;28;20401;-78
2022/04/14 10:03:25;;;;;;;22.45;17.02;;;;;;;23.66;46.49;100696.50;5116835;27;20750;-78
2022/04/14 10:05:59;;;;;;;23.38;17.92;;;;;;;24.23;45.61;100699.88;5105100;28;20409;-78
2022/04/14 10:08:27;;;;;;;21.98;18.42;;;;;;;24.54;44.15;100699.59;5094809;28;20436;-79
2022/04/14 10:11:05;;;;;;;21.88;17.63;;;;;;;25.07;42.38;100708.16;5109311;28;20472;-78
2022/04/14 10:13:35;;;;;;;20.13;17.42;;;;;;;25.53;41.70;100707.19;5113274;28;20445;-78
2022/04/14 10:16:02;;;;;;;21.00;18.42;;;;;;;25.86;40.63;100706.41;5112613;28;20409;-76
2022/04/14 10:18:27;;;;;;;19.33;17.33;;;;;;;25.96;40.39;100715.16;5100073;27;20826;-76
2022/04/14 10:20:53;;;;;;;20.25;17.45;;;;;;;26.28;39.59;100711.56;5108091;28;20436;-76
2022/04/14 10:23:18;;;;;;;19.57;17.57;;;;;;;26.56;39.38;100708.16;5107428;28;20808;-76
2022/04/14 10:25:44;;;;;;;19.97;17.20;;;;;;;26.39;39.25;100709.16;5106944;28;20410;-76
2022/04/14 10:28:14;;;;;;;21.10;17.90;;;;;;;26.37;39.28;100703.16;5113293;28;20415;-76
2022/04/14 10:30:47;;;;;;;19.30;17.30;;;;;;;26.56;39.12;100699.81;5112411;28;20412;-76
2022/04/14 10:33:13;;;;;;;19.45;16.70;;;;;;;27.06;38.71;100699.50;5112164;28;20970;-76
2022/04/14 10:35:38;;;;;;;20.10;18.00;;;;;;;27.38;36.90;100706.84;5106445;27;20493;-76
2022/04/14 10:38:19;;;;;;;18.95;16.90;;;;;;;27.62;36.97;100711.56;5105830;28;20507;-76
2022/04/14 10:40:53;;;;;;;19.73;17.40;;;;;;;27.81;35.88;100704.19;5112062;28;20804;-76
2022/04/14 10:43:26;;;;;;;19.98;17.90;;;;;;;27.97;36.07;100711.78;5110301;28;20883;-76
2022/04/14 10:45:53;;;;;;;21.10;17.27;;;;;;;28.22;35.27;100710.53;5111857;28;20429;-74
2022/04/14 10:48:32;;;;;;;20.58;17.83;;;;;;;28.23;35.68;100710.16;5102599;28;20794;-76
2022/04/14 10:51:22;;;;;;;20.25;18.25;;;;;;;27.20;37.16;100714.63;5083966;28;20441;-76
2022/04/14 10:53:51;;;;;;;21.33;18.73;;;;;;;26.26;38.43;100713.88;5093174;28;20484;-76
2022/04/14 10:56:37;;;;;;;20.90;18.77;;;;;;;25.11;40.37;100714.66;5088921;28;20598;-75
2022/04/14 10:59:04;;;;;;;20.40;18.20;;;;;;;24.62;41.41;100716.19;5097925;28;20476;-76
2022/04/14 11:01:48;;;;;;;20.88;18.42;;;;;;;25.71;39.95;100705.09;5100018;28;20392;-76
2022/04/14 11:04:34;;;;;;;22.05;17.73;;;;;;;26.55;39.09;100710.09;5094257;28;21033;-78
2022/04/14 11:07:13;;;;;;;19.30;17.35;;;;;;;27.19;38.35;100715.00;5102040;28;20840;-76
2022/04/14 11:09:42;;;;;;;20.25;18.15;;;;;;;27.60;36.75;100706.34;5092979;28;20416;-76
2022/04/14 11:12:12;;;;;;;21.83;16.92;;;;;;;27.85;36.98;100704.28;5092055;28;20451;-77
2022/04/14 11:14:57;;;;;;;19.48;17.50;;;;;;;28.08;36.51;100705.38;5094585;28;20481;-76
2022/04/14 11:17:37;;;;;;;20.02;18.02;;;;;;;28.26;36.34;100706.66;5094859;28;20437;-76